createdAt,value
2019-03-15T00:04:10.443Z,3.37
2019-03-15T00:09:30.493Z,2.83
2019-03-15T00:14:49.130Z,3.53
2019-03-15T00:20:09.899Z,2.67
2019-03-15T00:25:28.598Z,2.27
2019-03-15T00:30:47.214Z,2.20
2019-03-15T00:36:05.591Z,3.33
2019-03-15T00:41:24.195Z,2.73
2019-03-15T00:46:43.070Z,2.60
2019-03-15T00:52:01.686Z,2.87
2019-03-15T00:57:21.440Z,3.00
2019-03-15T01:02:44.457Z,3.23
2019-03-15T01:08:06.284Z,2.90
2019-03-15T01:13:26.883Z,3.37
2019-03-15T01:18:45.497Z,2.13
2019-03-15T01:24:04.897Z,2.60
2019-03-15T01:29:26.663Z,2.73
2019-03-15T01:34:50.327Z,2.53
2019-03-15T01:40:08.927Z,2.17
2019-03-15T01:45:28.677Z,3.17
2019-03-15T01:50:48.770Z,2.97
2019-03-15T01:56:07.138Z,1.70
2019-03-15T02:01:25.776Z,2.53
2019-03-15T02:06:47.307Z,3.30
2019-03-15T02:12:07.198Z,2.57
2019-03-15T02:17:33.230Z,1.90
2019-03-15T02:22:53.828Z,2.70
2019-03-15T02:28:12.392Z,2.07
2019-03-15T02:33:31.042Z,2.73
2019-03-15T02:38:49.567Z,2.87
2019-03-15T02:44:09.493Z,2.08
2019-03-15T02:49:29.504Z,3.75
2019-03-15T02:54:48.922Z,3.47
2019-03-15T03:00:09.682Z,3.12
2019-03-15T03:05:28.417Z,2.23
2019-03-15T03:10:47.550Z,3.47
2019-03-15T03:16:08.374Z,2.20
2019-03-15T03:21:27.058Z,2.80
2019-03-15T03:26:45.613Z,2.93
2019-03-15T03:32:04.355Z,3.67
2019-03-15T03:42:42.077Z,2.80
2019-03-15T03:53:20.014Z,2.70
2019-03-15T03:58:38.639Z,2.43
2019-03-15T04:03:57.967Z,2.37
2019-03-15T04:09:18.065Z,2.83
2019-03-15T04:14:38.196Z,2.43
2019-03-15T04:19:57.812Z,2.60
2019-03-15T04:25:16.521Z,2.33
2019-03-15T04:30:36.533Z,3.47
2019-03-15T04:35:55.087Z,2.70
2019-03-15T04:41:16.932Z,2.83
2019-03-15T04:46:36.968Z,2.03
2019-03-15T04:51:58.777Z,2.30
2019-03-15T04:57:19.562Z,2.80
2019-03-15T05:02:38.193Z,2.83
2019-03-15T05:07:57.042Z,2.72
2019-03-15T05:13:18.679Z,1.90
2019-03-15T05:18:38.690Z,2.90
2019-03-15T05:24:00.696Z,2.77
2019-03-15T05:29:39.490Z,2.23
2019-03-15T05:34:59.502Z,2.75
2019-03-15T05:40:18.114Z,3.13
2019-03-15T05:45:38.632Z,3.20
2019-03-15T05:50:57.189Z,3.17
2019-03-15T05:56:17.292Z,3.45
2019-03-15T06:01:35.959Z,3.30
2019-03-15T06:06:58.920Z,3.57
2019-03-15T06:12:39.124Z,3.87
2019-03-15T06:17:58.239Z,4.03
2019-03-15T06:23:19.284Z,2.97
2019-03-15T06:28:39.369Z,4.10
2019-03-15T06:34:01.303Z,3.52
2019-03-15T06:39:21.148Z,4.03
2019-03-15T06:44:40.890Z,4.60
2019-03-15T06:49:59.539Z,4.93
2019-03-15T06:55:20.541Z,4.45
2019-03-15T07:00:39.155Z,5.50
2019-03-15T07:06:17.336Z,6.17
2019-03-15T07:11:40.533Z,4.60
2019-03-15T07:17:01.498Z,6.10
2019-03-15T07:22:20.282Z,6.60
2019-03-15T07:27:42.396Z,6.10
2019-03-15T07:33:00.286Z,5.33
2019-03-15T07:38:18.911Z,5.63
2019-03-15T07:43:37.970Z,5.77
2019-03-15T07:48:59.228Z,6.27
2019-03-15T07:54:17.844Z,5.90
2019-03-15T07:59:38.019Z,6.53
2019-03-15T08:04:59.164Z,6.60
2019-03-15T08:10:20.148Z,5.90
2019-03-15T08:15:36.799Z,5.67
2019-03-15T08:20:55.341Z,5.37
2019-03-15T08:26:16.697Z,5.00
2019-03-15T08:31:36.710Z,5.73
2019-03-15T08:36:57.403Z,5.23
2019-03-15T08:42:16.501Z,5.58
2019-03-15T08:52:54.292Z,4.50
2019-03-15T08:58:21.694Z,5.20
2019-03-15T09:03:42.492Z,6.78
2019-03-15T09:09:01.979Z,5.33
2019-03-15T09:14:20.555Z,4.60
2019-03-15T09:19:42.594Z,4.20
2019-03-15T09:25:02.548Z,5.93
2019-03-15T09:30:24.204Z,5.03
2019-03-15T09:35:44.557Z,5.40
2019-03-15T09:41:08.076Z,6.33
2019-03-15T09:46:26.606Z,7.50
2019-03-15T09:51:45.223Z,8.43
2019-03-15T09:57:03.518Z,6.87
2019-03-15T10:02:30.287Z,8.23
2019-03-15T10:07:43.459Z,8.43
2019-03-15T10:13:06.245Z,7.07
2019-03-15T10:18:22.780Z,3.87
2019-03-15T10:23:44.494Z,4.17
2019-03-15T10:29:14.550Z,2.27
2019-03-15T10:34:26.203Z,4.53
2019-03-15T10:39:47.043Z,3.40
2019-03-15T10:45:09.534Z,3.60
2019-03-15T10:50:28.172Z,1.90
2019-03-15T10:55:59.659Z,2.80
2019-03-15T11:01:08.838Z,3.03
2019-03-15T11:06:29.859Z,5.45
2019-03-15T11:11:51.775Z,7.90
2019-03-15T11:17:10.971Z,6.63
2019-03-15T11:22:48.927Z,9.40
2019-03-15T11:28:10.188Z,8.33
2019-03-15T11:33:31.412Z,10.60
2019-03-15T11:38:53.850Z,8.53
2019-03-15T11:44:13.162Z,10.73
2019-03-15T11:49:34.906Z,8.53
2019-03-15T11:54:54.481Z,9.20
2019-03-15T12:00:15.628Z,9.00
2019-03-15T12:05:38.088Z,9.83
2019-03-15T12:10:57.994Z,11.30
2019-03-15T12:16:17.533Z,7.57
2019-03-15T12:21:38.093Z,10.30
2019-03-15T12:38:09.310Z,7.50
2019-03-15T12:43:30.403Z,5.93
2019-03-15T12:48:48.947Z,3.87
2019-03-15T12:54:08.540Z,6.60
2019-03-15T12:59:27.202Z,3.57
2019-03-15T13:04:45.779Z,4.33
2019-03-15T13:10:06.316Z,4.57
2019-03-15T13:15:27.394Z,4.10
2019-03-15T13:20:46.011Z,3.63
2019-03-15T13:26:05.646Z,5.40
2019-03-15T13:31:24.296Z,4.63
2019-03-15T13:36:43.129Z,4.87
2019-03-15T13:42:02.667Z,4.30
2019-03-15T13:47:21.540Z,5.97
2019-03-15T13:52:42.798Z,4.07
2019-03-15T13:58:05.307Z,4.33
2019-03-15T14:03:27.957Z,4.80
2019-03-15T14:08:48.047Z,3.67
2019-03-15T14:14:07.731Z,3.60
2019-03-15T14:19:45.880Z,2.57
2019-03-15T14:25:07.896Z,3.63
2019-03-15T14:30:28.017Z,3.60
2019-03-15T14:35:48.098Z,3.43
2019-03-15T14:41:08.188Z,2.30
2019-03-15T14:46:28.110Z,3.90
2019-03-15T14:51:50.204Z,3.60
2019-03-15T14:57:08.206Z,2.80
2019-03-15T15:02:28.308Z,3.07
2019-03-15T15:07:46.893Z,2.92
2019-03-15T15:13:05.538Z,2.50
2019-03-15T15:18:26.192Z,2.57
2019-03-15T15:23:47.051Z,3.00
2019-03-15T15:29:06.935Z,2.23
2019-03-15T15:34:27.028Z,1.60
2019-03-15T15:39:49.810Z,1.33
2019-03-15T15:45:14.873Z,2.50
2019-03-15T15:50:34.539Z,2.00
2019-03-15T15:55:54.555Z,2.70
2019-03-15T16:01:15.732Z,2.37
2019-03-15T16:06:35.450Z,1.50
2019-03-15T16:11:55.288Z,3.00
2019-03-15T16:17:14.855Z,4.47
2019-03-15T16:22:33.502Z,3.60
2019-03-15T16:27:54.055Z,3.00
2019-03-15T16:33:16.677Z,2.53
2019-03-15T16:38:35.237Z,3.53
2019-03-15T16:43:53.860Z,2.67
2019-03-15T16:49:17.104Z,3.43
2019-03-15T16:54:40.715Z,3.60
2019-03-15T16:59:59.289Z,3.97
2019-03-15T17:05:17.928Z,2.53
2019-03-15T17:10:38.041Z,4.00
2019-03-15T17:16:00.846Z,2.30
2019-03-15T17:21:19.965Z,5.10
2019-03-15T17:26:38.593Z,3.13
2019-03-15T17:31:58.640Z,3.23
2019-03-15T17:37:17.589Z,3.90
2019-03-15T17:42:57.383Z,3.63
2019-03-15T17:48:17.001Z,3.43
2019-03-15T17:53:38.279Z,3.37
2019-03-15T17:59:12.250Z,3.90
2019-03-15T18:04:28.112Z,2.90
2019-03-15T18:09:46.747Z,1.77
2019-03-15T18:15:09.875Z,2.40
2019-03-15T18:20:26.449Z,2.30
2019-03-15T18:25:45.017Z,4.23
2019-03-15T18:31:03.941Z,3.00
2019-03-15T18:36:26.759Z,2.30
2019-03-15T18:41:50.286Z,2.23
2019-03-15T18:47:08.205Z,3.17
2019-03-15T18:52:27.275Z,3.13
2019-03-15T18:57:45.918Z,2.43
2019-03-15T19:03:26.872Z,2.80
2019-03-15T19:08:48.833Z,3.30
2019-03-15T19:14:07.560Z,3.40
2019-03-15T19:19:27.731Z,2.50
2019-03-15T19:25:06.713Z,2.73
2019-03-15T19:30:25.434Z,3.03
2019-03-15T19:35:44.072Z,2.07
2019-03-15T19:41:03.313Z,3.13
2019-03-15T19:46:23.050Z,2.80
2019-03-15T19:51:41.765Z,2.97
2019-03-15T19:57:04.042Z,3.20
2019-03-15T20:02:24.250Z,2.40
2019-03-15T20:08:02.166Z,3.30
2019-03-15T20:13:24.452Z,2.90
2019-03-15T20:18:43.896Z,4.90
2019-03-15T20:24:03.984Z,3.77
2019-03-15T20:29:25.746Z,3.60
2019-03-15T20:34:50.733Z,2.93
2019-03-15T20:40:03.174Z,3.10
2019-03-15T20:45:24.863Z,4.30
2019-03-15T20:50:47.123Z,2.53
2019-03-15T20:56:07.478Z,2.97
2019-03-15T21:01:25.766Z,3.47
2019-03-15T21:06:44.306Z,2.90
2019-03-15T21:12:02.662Z,3.33
2019-03-15T21:17:23.241Z,2.50
2019-03-15T21:22:41.865Z,2.33
2019-03-15T21:28:01.354Z,2.93
2019-03-15T21:33:20.177Z,3.77
2019-03-15T21:38:48.032Z,2.73
2019-03-15T21:43:59.649Z,3.10
2019-03-15T21:49:20.042Z,2.50
2019-03-15T21:54:37.244Z,3.20
2019-03-15T21:59:55.884Z,2.63
2019-03-15T22:05:15.253Z,3.10
2019-03-15T22:10:36.689Z,2.83
2019-03-15T22:15:55.257Z,2.93
2019-03-15T22:21:13.804Z,2.23
2019-03-15T22:26:36.954Z,2.37
2019-03-15T22:31:58.727Z,2.33
2019-03-15T22:37:24.226Z,1.80
2019-03-15T22:42:45.924Z,2.37
2019-03-15T22:48:05.763Z,2.23
2019-03-15T22:53:26.336Z,2.40
2019-03-15T22:58:46.435Z,2.77
2019-03-15T23:04:08.470Z,3.07
2019-03-15T23:09:30.999Z,2.43
2019-03-15T23:14:49.644Z,2.57
2019-03-15T23:20:15.565Z,2.87
2019-03-15T23:25:35.845Z,3.50
2019-03-15T23:30:55.980Z,2.93
2019-03-15T23:36:17.542Z,3.20
2019-03-15T23:41:40.046Z,3.40
2019-03-15T23:47:00.520Z,2.93
2019-03-15T23:52:20.287Z,3.30
2019-03-15T23:57:38.902Z,2.53
